createdAt,value
2018-08-25T00:01:16.321Z,99.90
2018-08-25T00:03:45.716Z,99.90
2018-08-25T00:06:15.176Z,99.90
2018-08-25T00:08:44.548Z,99.90
2018-08-25T00:11:13.983Z,99.90
2018-08-25T00:13:43.352Z,99.90
2018-08-25T00:16:12.788Z,99.90
2018-08-25T00:18:42.149Z,99.90
2018-08-25T00:21:11.597Z,99.90
2018-08-25T00:23:41.813Z,99.90
2018-08-25T00:26:11.306Z,99.90
2018-08-25T00:28:40.652Z,99.90
2018-08-25T00:31:15.156Z,99.90
2018-08-25T00:33:44.556Z,99.90
2018-08-25T00:36:13.945Z,99.90
2018-08-25T00:38:43.300Z,99.90
2018-08-25T00:41:13.008Z,99.90
2018-08-25T00:43:42.437Z,99.90
2018-08-25T00:46:12.020Z,99.90
2018-08-25T00:48:41.390Z,99.90
2018-08-25T00:51:10.773Z,99.90
2018-08-25T00:53:40.148Z,99.90
2018-08-25T00:56:09.620Z,99.90
2018-08-25T00:58:39.024Z,99.90
2018-08-25T01:01:08.524Z,99.90
2018-08-25T01:03:37.907Z,99.90
2018-08-25T01:06:07.551Z,99.90
2018-08-25T01:08:36.932Z,99.90
2018-08-25T01:11:06.744Z,99.90
2018-08-25T01:13:36.266Z,99.90
2018-08-25T01:16:05.772Z,99.90
2018-08-25T01:18:35.144Z,99.90
2018-08-25T01:21:04.556Z,99.90
2018-08-25T01:23:33.938Z,99.90
2018-08-25T01:26:03.372Z,99.90
2018-08-25T01:28:32.749Z,99.90
2018-08-25T01:31:02.164Z,99.90
2018-08-25T01:33:31.545Z,99.90
2018-08-25T01:36:00.972Z,99.90
2018-08-25T01:38:30.359Z,99.90
2018-08-25T01:41:00.204Z,99.90
2018-08-25T01:43:29.580Z,99.90
2018-08-25T01:45:58.993Z,99.90
2018-08-25T01:48:28.561Z,99.90
2018-08-25T01:50:58.024Z,99.90
2018-08-25T01:53:27.422Z,99.90
2018-08-25T01:55:56.901Z,99.90
2018-08-25T01:58:26.321Z,99.90
2018-08-25T02:00:55.721Z,99.90
2018-08-25T02:03:25.102Z,99.90
2018-08-25T02:05:54.516Z,99.90
2018-08-25T02:08:23.918Z,99.90
2018-08-25T02:10:53.294Z,99.90
2018-08-25T02:13:22.693Z,99.90
2018-08-25T02:15:52.117Z,99.90
2018-08-25T02:18:21.514Z,99.90
2018-08-25T02:20:50.928Z,99.90
2018-08-25T02:23:20.320Z,99.90
2018-08-25T02:25:49.733Z,99.90
2018-08-25T02:28:19.202Z,99.90
2018-08-25T02:30:48.516Z,99.90
2018-08-25T02:33:17.903Z,99.90
2018-08-25T02:35:47.369Z,99.90
2018-08-25T02:38:16.803Z,99.90
2018-08-25T02:40:46.241Z,99.90
2018-08-25T02:43:15.620Z,99.90
2018-08-25T02:45:45.013Z,99.90
2018-08-25T02:48:14.420Z,99.90
2018-08-25T02:50:43.855Z,99.90
2018-08-25T02:53:13.224Z,99.90
2018-08-25T02:55:42.661Z,99.90
2018-08-25T02:58:12.045Z,99.90
2018-08-25T03:00:41.473Z,99.90
2018-08-25T03:03:10.854Z,99.90
2018-08-25T03:05:40.233Z,99.90
2018-08-25T03:08:09.676Z,99.90
2018-08-25T03:10:39.066Z,99.90
2018-08-25T03:13:08.704Z,99.90
2018-08-25T03:15:38.112Z,99.90
2018-08-25T03:18:07.596Z,99.90
2018-08-25T03:20:36.980Z,99.90
2018-08-25T03:23:06.487Z,99.90
2018-08-25T03:25:35.876Z,99.90
2018-08-25T03:28:05.299Z,99.90
2018-08-25T03:30:34.681Z,99.90
2018-08-25T03:33:04.141Z,99.90
2018-08-25T03:35:33.529Z,99.90
2018-08-25T03:38:03.021Z,99.90
2018-08-25T03:40:32.410Z,99.90
2018-08-25T03:43:01.829Z,99.90
2018-08-25T03:45:31.360Z,99.90
2018-08-25T03:48:00.832Z,99.90
2018-08-25T03:50:30.225Z,99.90
2018-08-25T03:52:59.647Z,99.90
2018-08-25T03:55:29.087Z,99.90
2018-08-25T03:57:58.425Z,99.90
2018-08-25T04:00:27.804Z,99.90
2018-08-25T04:02:57.228Z,99.90
2018-08-25T04:05:26.581Z,99.90
2018-08-25T04:07:56.017Z,99.90
2018-08-25T04:10:25.368Z,99.90
2018-08-25T04:12:54.821Z,99.90
2018-08-25T04:15:24.181Z,99.90
2018-08-25T04:17:53.626Z,99.90
2018-08-25T04:20:22.969Z,99.90
2018-08-25T04:22:52.377Z,99.90
2018-08-25T04:25:21.733Z,99.90
2018-08-25T04:27:51.153Z,99.90
2018-08-25T04:30:20.501Z,99.90
2018-08-25T04:32:50.317Z,99.90
2018-08-25T04:35:19.689Z,99.90
2018-08-25T04:37:49.075Z,99.90
2018-08-25T04:40:18.432Z,99.90
2018-08-25T04:42:47.884Z,99.90
2018-08-25T04:45:17.297Z,99.90
2018-08-25T04:47:46.676Z,99.90
2018-08-25T04:50:16.029Z,99.90
2018-08-25T04:52:45.468Z,99.90
2018-08-25T04:55:14.840Z,99.90
2018-08-25T04:57:44.260Z,99.90
2018-08-25T05:00:13.633Z,99.90
2018-08-25T05:02:43.004Z,99.90
2018-08-25T05:05:12.542Z,99.90
2018-08-25T05:07:42.075Z,99.90
2018-08-25T05:10:11.370Z,99.90
2018-08-25T05:12:40.789Z,99.90
2018-08-25T05:15:10.132Z,99.90
2018-08-25T05:17:39.617Z,99.90
2018-08-25T05:20:08.973Z,99.90
2018-08-25T05:22:38.409Z,99.90
2018-08-25T05:25:08.504Z,99.90
2018-08-25T05:27:38.064Z,99.90
2018-08-25T05:30:08.200Z,99.90
2018-08-25T05:32:37.669Z,99.90
2018-08-25T05:35:07.278Z,99.90
2018-08-25T05:37:36.667Z,99.90
2018-08-25T05:40:06.022Z,99.90
2018-08-25T05:42:35.477Z,99.90
2018-08-25T05:45:04.832Z,99.90
2018-08-25T05:47:34.296Z,99.90
2018-08-25T05:50:03.652Z,99.90
2018-08-25T05:52:33.093Z,99.90
2018-08-25T05:55:02.436Z,99.90
2018-08-25T05:57:31.889Z,99.90
2018-08-25T06:00:01.269Z,99.90
2018-08-25T06:02:30.682Z,99.90
2018-08-25T06:05:00.054Z,99.90
2018-08-25T06:07:29.496Z,99.90
2018-08-25T06:09:58.860Z,99.90
2018-08-25T06:12:28.308Z,99.90
2018-08-25T06:14:57.657Z,99.90
2018-08-25T06:17:27.104Z,99.90
2018-08-25T06:19:56.504Z,99.90
2018-08-25T06:22:25.923Z,99.90
2018-08-25T06:24:55.288Z,99.90
2018-08-25T06:27:24.732Z,99.90
2018-08-25T06:29:54.166Z,99.90
2018-08-25T06:32:23.524Z,99.90
2018-08-25T06:34:52.868Z,99.90
2018-08-25T06:37:22.317Z,99.90
2018-08-25T06:39:51.665Z,99.90
2018-08-25T06:42:21.142Z,99.90
2018-08-25T06:44:50.537Z,99.90
2018-08-25T06:47:19.933Z,99.90
2018-08-25T06:49:49.293Z,99.90
2018-08-25T06:52:18.748Z,99.90
2018-08-25T06:54:48.112Z,99.90
2018-08-25T06:57:17.561Z,99.90
2018-08-25T06:59:46.928Z,99.90
2018-08-25T07:02:16.401Z,99.90
2018-08-25T07:04:45.759Z,99.90
2018-08-25T07:07:15.160Z,99.90
2018-08-25T07:09:44.548Z,99.90
2018-08-25T07:12:13.956Z,99.90
2018-08-25T07:14:43.336Z,99.90
2018-08-25T07:17:12.797Z,99.90
2018-08-25T07:19:42.196Z,99.90
2018-08-25T07:22:11.629Z,99.90
2018-08-25T07:24:40.997Z,99.90
2018-08-25T07:27:10.365Z,99.90
2018-08-25T07:29:39.733Z,99.90
2018-08-25T07:32:09.226Z,99.90
2018-08-25T07:34:38.556Z,99.90
2018-08-25T07:37:07.989Z,99.90
2018-08-25T07:39:37.364Z,99.90
2018-08-25T07:42:06.921Z,99.90
2018-08-25T07:44:36.334Z,99.90
2018-08-25T07:47:05.842Z,99.90
2018-08-25T07:49:35.281Z,99.90
2018-08-25T07:52:04.615Z,99.90
2018-08-25T07:54:33.976Z,99.90
2018-08-25T07:57:03.329Z,99.90
2018-08-25T07:59:32.692Z,99.90
2018-08-25T08:02:02.123Z,99.90
2018-08-25T08:04:31.501Z,99.90
2018-08-25T08:07:00.941Z,99.90
2018-08-25T08:09:30.337Z,99.90
2018-08-25T08:11:59.815Z,99.90
2018-08-25T08:14:29.045Z,99.90
2018-08-25T08:16:58.424Z,99.90
2018-08-25T08:19:28.021Z,99.90
2018-08-25T08:21:57.443Z,99.90
2018-08-25T08:24:26.792Z,99.90
2018-08-25T08:26:56.251Z,99.90
2018-08-25T08:29:25.672Z,99.90
2018-08-25T08:31:55.041Z,99.90
2018-08-25T08:34:24.584Z,99.90
2018-08-25T08:36:53.959Z,99.90
2018-08-25T08:39:23.408Z,99.90
2018-08-25T08:41:52.729Z,99.90
2018-08-25T08:44:22.184Z,99.90
2018-08-25T08:46:51.545Z,99.90
2018-08-25T08:49:20.974Z,99.90
2018-08-25T08:51:50.347Z,99.90
2018-08-25T08:54:19.856Z,99.90
2018-08-25T08:56:49.244Z,99.90
2018-08-25T08:59:18.652Z,99.90
2018-08-25T09:01:48.091Z,99.90
2018-08-25T09:04:17.503Z,99.90
2018-08-25T09:06:46.889Z,99.90
2018-08-25T09:09:16.314Z,99.90
2018-08-25T09:11:45.773Z,99.90
2018-08-25T09:14:15.116Z,99.90
2018-08-25T09:16:44.508Z,99.90
2018-08-25T09:19:13.948Z,99.90
2018-08-25T09:21:43.332Z,99.90
2018-08-25T09:24:12.821Z,99.90
2018-08-25T09:26:42.222Z,99.90
2018-08-25T09:29:11.644Z,99.90
2018-08-25T09:31:41.049Z,99.90
2018-08-25T09:34:10.560Z,99.90
2018-08-25T09:36:40.178Z,99.90
2018-08-25T09:39:10.945Z,99.90
2018-08-25T09:41:40.733Z,99.90
2018-08-25T09:44:10.078Z,99.90
2018-08-25T09:46:39.503Z,99.90
2018-08-25T09:49:08.957Z,99.90
2018-08-25T09:51:38.541Z,99.90
2018-08-25T09:54:08.194Z,99.90
2018-08-25T09:56:37.596Z,99.90
2018-08-25T09:59:07.317Z,99.90
2018-08-25T10:01:42.002Z,99.90
2018-08-25T10:04:11.392Z,99.90
2018-08-25T10:06:40.862Z,99.90
2018-08-25T10:09:10.246Z,99.90
2018-08-25T10:11:39.666Z,99.90
2018-08-25T10:14:09.030Z,99.90
2018-08-25T10:16:38.480Z,99.90
2018-08-25T10:19:07.837Z,99.90
2018-08-25T10:21:37.284Z,99.90
2018-08-25T10:24:06.772Z,99.90
2018-08-25T10:26:36.241Z,99.90
2018-08-25T10:29:05.931Z,99.90
2018-08-25T10:31:35.318Z,99.90
2018-08-25T10:34:04.717Z,99.90
2018-08-25T10:36:34.125Z,99.90
2018-08-25T10:39:04.465Z,99.90
2018-08-25T10:41:33.975Z,99.90
2018-08-25T10:46:39.420Z,99.90
2018-08-25T10:49:09.249Z,99.90
2018-08-25T10:51:39.058Z,99.90
2018-08-25T10:54:08.707Z,99.90
2018-08-25T10:56:38.165Z,99.90
2018-08-25T10:59:07.604Z,99.90
2018-08-25T11:01:37.114Z,99.90
2018-08-25T11:04:06.536Z,99.90
2018-08-25T11:06:35.929Z,99.90
2018-08-25T11:09:09.064Z,99.90
2018-08-25T11:11:38.659Z,99.90
2018-08-25T11:14:08.209Z,99.90
2018-08-25T11:16:37.639Z,99.90
2018-08-25T11:19:07.258Z,99.90
2018-08-25T11:21:36.918Z,99.90
2018-08-25T11:24:06.406Z,99.90
2018-08-25T11:26:35.872Z,99.90
2018-08-25T11:29:05.450Z,99.90
2018-08-25T11:31:34.822Z,99.90
2018-08-25T11:34:04.326Z,99.90
2018-08-25T11:36:33.754Z,99.90
2018-08-25T11:39:03.223Z,99.90
2018-08-25T11:41:32.639Z,99.90
2018-08-25T11:44:02.165Z,99.90
2018-08-25T11:46:31.539Z,99.90
2018-08-25T11:49:01.038Z,99.90
2018-08-25T11:51:30.451Z,99.90
2018-08-25T11:54:00.112Z,99.90
2018-08-25T11:56:29.518Z,99.90
2018-08-25T11:58:59.001Z,99.90
2018-08-25T12:01:28.426Z,99.90
2018-08-25T12:03:57.853Z,99.90
2018-08-25T12:06:27.286Z,99.90
2018-08-25T12:08:56.712Z,99.90
2018-08-25T12:11:26.117Z,99.90
2018-08-25T12:13:55.566Z,99.90
2018-08-25T12:16:24.995Z,99.90
2018-08-25T12:18:54.484Z,99.90
2018-08-25T12:21:23.891Z,99.90
2018-08-25T12:23:53.382Z,99.90
2018-08-25T12:26:22.785Z,99.90
2018-08-25T12:28:52.297Z,99.90
2018-08-25T12:31:21.687Z,99.90
2018-08-25T12:33:51.419Z,99.90
2018-08-25T12:36:20.824Z,99.90
2018-08-25T12:38:50.336Z,99.90
2018-08-25T12:41:19.926Z,99.90
2018-08-25T12:43:49.342Z,99.90
2018-08-25T12:46:18.762Z,99.90
2018-08-25T12:48:48.291Z,99.90
2018-08-25T12:51:17.645Z,99.90
2018-08-25T12:53:47.135Z,99.90
2018-08-25T12:56:16.522Z,99.90
2018-08-25T12:58:45.944Z,99.90
2018-08-25T13:01:15.330Z,99.90
2018-08-25T13:03:44.744Z,99.90
2018-08-25T13:06:14.148Z,99.90
2018-08-25T13:08:43.662Z,99.90
2018-08-25T13:11:13.056Z,99.90
2018-08-25T13:13:42.568Z,99.90
2018-08-25T13:16:11.997Z,99.90
2018-08-25T13:18:41.517Z,99.90
2018-08-25T13:21:10.881Z,99.90
2018-08-25T13:23:40.413Z,99.90
2018-08-25T13:26:09.827Z,99.90
2018-08-25T13:28:39.276Z,99.90
2018-08-25T13:31:09.264Z,99.90
2018-08-25T13:33:38.982Z,99.90
2018-08-25T13:36:08.368Z,99.90
2018-08-25T13:38:37.821Z,99.90
2018-08-25T13:41:07.273Z,99.90
2018-08-25T13:43:36.740Z,99.90
2018-08-25T13:46:06.142Z,99.90
2018-08-25T13:48:35.620Z,99.90
2018-08-25T13:51:05.057Z,99.90
2018-08-25T13:53:34.436Z,99.90
2018-08-25T13:56:03.837Z,99.90
2018-08-25T13:58:33.341Z,99.90
2018-08-25T14:01:02.800Z,99.90
2018-08-25T14:03:32.251Z,99.90
2018-08-25T14:06:01.656Z,99.90
2018-08-25T14:08:31.252Z,99.90
2018-08-25T14:11:00.564Z,99.90
2018-08-25T14:13:30.039Z,99.90
2018-08-25T14:15:59.476Z,99.90
2018-08-25T14:18:28.853Z,99.90
2018-08-25T14:20:58.248Z,99.90
2018-08-25T14:23:27.669Z,99.90
2018-08-25T14:25:57.180Z,99.90
2018-08-25T14:28:26.679Z,99.90
2018-08-25T14:30:56.071Z,99.90
2018-08-25T14:33:25.602Z,99.90
2018-08-25T14:35:55.029Z,99.90
2018-08-25T14:38:24.618Z,99.90
2018-08-25T14:40:54.039Z,99.90
2018-08-25T14:43:23.525Z,99.90
2018-08-25T14:45:52.909Z,99.90
2018-08-25T14:48:22.420Z,99.90
2018-08-25T14:50:51.808Z,99.90
2018-08-25T14:53:21.295Z,99.90
2018-08-25T14:55:50.663Z,99.90
2018-08-25T14:58:20.099Z,99.90
2018-08-25T15:00:49.526Z,99.90
2018-08-25T15:03:18.906Z,99.90
2018-08-25T15:05:48.284Z,99.90
2018-08-25T15:08:17.696Z,99.90
2018-08-25T15:10:47.066Z,99.90
2018-08-25T15:13:16.542Z,99.90
2018-08-25T15:15:45.894Z,99.90
2018-08-25T15:18:15.348Z,99.90
2018-08-25T15:20:44.726Z,99.90
2018-08-25T15:23:14.122Z,99.90
2018-08-25T15:25:43.495Z,99.90
2018-08-25T15:28:12.936Z,99.90
2018-08-25T15:30:42.298Z,99.90
2018-08-25T15:33:11.762Z,99.90
2018-08-25T15:35:41.273Z,99.90
2018-08-25T15:38:10.764Z,99.90
2018-08-25T15:40:40.177Z,99.90
2018-08-25T15:43:09.657Z,99.90
2018-08-25T15:45:39.040Z,99.90
2018-08-25T15:48:08.430Z,99.90
2018-08-25T15:50:37.800Z,99.90
2018-08-25T15:53:07.308Z,99.90
2018-08-25T15:55:36.670Z,99.90
2018-08-25T15:58:06.193Z,99.90
2018-08-25T16:00:35.500Z,99.90
2018-08-25T16:03:04.970Z,99.90
2018-08-25T16:05:34.342Z,99.90
2018-08-25T16:08:03.775Z,99.90
2018-08-25T16:10:33.166Z,99.90
2018-08-25T16:13:02.586Z,99.90
2018-08-25T16:15:32.010Z,99.90
2018-08-25T16:18:01.497Z,99.90
2018-08-25T16:20:30.863Z,99.90
2018-08-25T16:23:00.300Z,99.90
2018-08-25T16:25:29.682Z,99.80
2018-08-25T16:27:59.106Z,99.00
2018-08-25T16:30:28.472Z,99.90
2018-08-25T16:32:57.894Z,99.90
2018-08-25T16:35:27.285Z,99.90
2018-08-25T16:37:56.765Z,99.90
2018-08-25T16:40:26.120Z,99.90
2018-08-25T16:42:55.501Z,99.90
2018-08-25T16:45:24.885Z,98.50
2018-08-25T16:47:54.260Z,96.90
2018-08-25T16:50:23.630Z,95.20
2018-08-25T16:52:53.132Z,94.50
2018-08-25T16:55:22.500Z,93.90
2018-08-25T16:57:51.934Z,93.50
2018-08-25T17:00:21.321Z,93.00
2018-08-25T17:02:50.777Z,93.50
2018-08-25T17:05:20.153Z,94.40
2018-08-25T17:07:49.556Z,95.00
2018-08-25T17:10:18.928Z,96.20
2018-08-25T17:12:48.350Z,94.80
2018-08-25T17:15:17.759Z,95.50
2018-08-25T17:17:47.133Z,95.40
2018-08-25T17:20:16.518Z,95.60
2018-08-25T17:22:45.954Z,96.20
2018-08-25T17:25:15.365Z,96.30
2018-08-25T17:27:44.758Z,96.00
2018-08-25T17:30:14.292Z,95.90
2018-08-25T17:32:43.916Z,95.90
2018-08-25T17:35:13.266Z,96.50
2018-08-25T17:37:42.668Z,95.90
2018-08-25T17:40:12.043Z,96.10
2018-08-25T17:42:41.501Z,96.90
2018-08-25T17:45:10.937Z,96.50
2018-08-25T17:47:40.285Z,96.80
2018-08-25T17:50:09.657Z,97.40
2018-08-25T17:52:39.095Z,97.20
2018-08-25T17:55:08.717Z,97.70
2018-08-25T17:57:38.170Z,97.50
2018-08-25T18:00:07.653Z,98.10
2018-08-25T18:02:37.137Z,98.20
2018-08-25T18:05:06.550Z,98.10
2018-08-25T18:07:36.024Z,99.00
2018-08-25T18:10:05.426Z,99.00
2018-08-25T18:12:34.830Z,98.70
2018-08-25T18:15:04.213Z,99.00
2018-08-25T18:17:33.707Z,98.90
2018-08-25T18:20:02.977Z,99.30
2018-08-25T18:22:32.539Z,99.50
2018-08-25T18:25:01.820Z,99.90
2018-08-25T18:27:31.274Z,99.90
2018-08-25T18:30:00.705Z,99.90
2018-08-25T18:32:30.148Z,99.90
2018-08-25T18:34:59.528Z,99.90
2018-08-25T18:37:28.950Z,99.90
2018-08-25T18:39:58.346Z,99.90
2018-08-25T18:42:27.769Z,99.90
2018-08-25T18:44:57.160Z,99.90
2018-08-25T18:47:26.601Z,99.90
2018-08-25T18:49:56.058Z,99.90
2018-08-25T18:52:25.466Z,99.90
2018-08-25T18:54:55.015Z,99.90
2018-08-25T18:57:24.430Z,99.90
2018-08-25T18:59:53.826Z,99.90
2018-08-25T19:02:23.311Z,99.90
2018-08-25T19:04:52.628Z,99.90
2018-08-25T19:07:22.120Z,99.90
2018-08-25T19:09:51.513Z,99.90
2018-08-25T19:12:21.192Z,99.90
2018-08-25T19:14:50.590Z,99.90
2018-08-25T19:17:20.012Z,99.90
2018-08-25T19:19:49.417Z,99.90
2018-08-25T19:22:19.266Z,99.90
2018-08-25T19:24:48.861Z,99.90
2018-08-25T19:27:18.586Z,99.90
2018-08-25T19:29:48.054Z,99.90
2018-08-25T19:32:17.489Z,99.90
2018-08-25T19:34:46.895Z,99.90
2018-08-25T19:37:16.476Z,99.90
2018-08-25T19:39:45.877Z,99.90
2018-08-25T19:42:15.421Z,99.90
2018-08-25T19:44:44.805Z,99.90
2018-08-25T19:47:14.317Z,99.90
2018-08-25T19:49:43.713Z,99.90
2018-08-25T19:52:13.214Z,99.90
2018-08-25T19:54:42.643Z,99.90
2018-08-25T19:57:12.124Z,99.90
2018-08-25T19:59:41.562Z,99.90
2018-08-25T20:02:11.016Z,99.90
2018-08-25T20:04:40.562Z,99.90
2018-08-25T20:07:09.967Z,99.90
2018-08-25T20:09:39.459Z,99.90
2018-08-25T20:12:08.906Z,99.90
2018-08-25T20:14:38.368Z,99.90
2018-08-25T20:17:07.802Z,99.90
2018-08-25T20:19:37.277Z,99.90
2018-08-25T20:22:08.346Z,99.90
2018-08-25T20:24:37.863Z,99.90
2018-08-25T20:27:07.381Z,99.90
2018-08-25T20:29:36.806Z,99.90
2018-08-25T20:32:06.397Z,99.90
2018-08-25T20:34:35.796Z,99.90
2018-08-25T20:37:05.624Z,99.90
2018-08-25T20:39:35.211Z,99.90
2018-08-25T20:42:04.678Z,99.90
2018-08-25T20:44:34.094Z,99.90
2018-08-25T20:47:03.512Z,99.90
2018-08-25T20:49:33.031Z,99.90
2018-08-25T20:52:02.462Z,99.90
2018-08-25T20:54:31.923Z,99.90
2018-08-25T20:57:01.452Z,99.90
2018-08-25T20:59:30.883Z,99.90
2018-08-25T21:02:00.462Z,99.90
2018-08-25T21:04:30.110Z,99.90
2018-08-25T21:06:59.637Z,99.90
2018-08-25T21:09:29.062Z,99.90
2018-08-25T21:11:58.574Z,99.90
2018-08-25T21:14:28.026Z,99.90
2018-08-25T21:16:57.526Z,99.90
2018-08-25T21:19:26.919Z,99.90
2018-08-25T21:21:56.550Z,99.90
2018-08-25T21:24:26.058Z,99.90
2018-08-25T21:26:55.794Z,99.90
2018-08-25T21:29:25.234Z,99.90
2018-08-25T21:31:54.789Z,99.90
2018-08-25T21:34:24.337Z,99.90
2018-08-25T21:36:53.930Z,99.90
2018-08-25T21:39:23.485Z,99.90
2018-08-25T21:41:53.057Z,99.90
2018-08-25T21:44:22.640Z,99.90
2018-08-25T21:46:52.119Z,99.90
2018-08-25T21:49:21.623Z,99.90
2018-08-25T21:51:51.185Z,99.90
2018-08-25T21:54:20.635Z,99.90
2018-08-25T21:56:50.097Z,99.90
2018-08-25T21:59:19.528Z,99.90
2018-08-25T22:01:54.006Z,99.90
2018-08-25T22:04:23.422Z,99.90
2018-08-25T22:06:53.035Z,99.90
2018-08-25T22:09:22.421Z,99.90
2018-08-25T22:11:51.933Z,99.90
2018-08-25T22:14:21.386Z,99.90
2018-08-25T22:16:51.240Z,99.90
2018-08-25T22:19:20.869Z,99.90
2018-08-25T22:21:50.369Z,99.90
2018-08-25T22:24:19.774Z,99.90
2018-08-25T22:26:49.297Z,99.90
2018-08-25T22:29:18.788Z,99.90
2018-08-25T22:31:48.288Z,99.90
2018-08-25T22:34:17.709Z,99.90
2018-08-25T22:36:47.174Z,99.90
2018-08-25T22:39:16.602Z,99.90
2018-08-25T22:41:46.150Z,99.90
2018-08-25T22:44:15.784Z,99.90
2018-08-25T22:46:45.330Z,99.90
2018-08-25T22:49:14.749Z,99.90
2018-08-25T22:51:44.218Z,99.90
2018-08-25T22:54:13.643Z,99.90
2018-08-25T22:56:43.120Z,99.90
2018-08-25T22:59:12.535Z,99.90
2018-08-25T23:01:42.023Z,99.90
2018-08-25T23:04:11.434Z,99.90
2018-08-25T23:06:40.922Z,99.90
2018-08-25T23:09:10.869Z,99.90
2018-08-25T23:11:40.654Z,99.90
2018-08-25T23:14:10.088Z,99.90
2018-08-25T23:16:39.552Z,99.90
2018-08-25T23:19:08.953Z,99.90
2018-08-25T23:21:38.466Z,99.90
2018-08-25T23:24:07.868Z,99.90
2018-08-25T23:26:37.396Z,99.90
2018-08-25T23:29:07.089Z,99.90
2018-08-25T23:31:36.582Z,99.90
2018-08-25T23:34:06.017Z,99.90
2018-08-25T23:36:35.502Z,99.90
2018-08-25T23:39:06.617Z,99.90
2018-08-25T23:41:36.038Z,99.90
2018-08-25T23:44:05.445Z,99.90
2018-08-25T23:46:34.958Z,99.90
2018-08-25T23:49:04.393Z,99.90
2018-08-25T23:51:33.881Z,99.90
2018-08-25T23:54:03.365Z,99.90
2018-08-25T23:56:33.281Z,99.90
2018-08-25T23:59:02.677Z,99.90
